Airfield :
LOGIN :

Register | Disclaimer

   EN    FR    IT 

 










Legend :    VFR   Marginal VFR   IFR   Intensive IFR   Very Intensive IFR
Visi :
Ceiling :
>= 8 km
>= 3000ft
5 to 8 km
1000 to 3000 ft
1500m to 5 km
500 to 1000 ft
800 to 1500m
200 to 500 ft
< 800m
< 200 ft
Symbols :   Thunderstorms  Fog  Heavy snow  Heavy precipitations  Wind > 20 kt
SIGMETs :     Misc.  Thunderstorms  Icing  Turbulence  Mountain Waves  Volcanic Ashes






- Airport Elevation : 285 ft
- IATA code : OZP


LEMO - Sevilla Moron

CURRENT METAR :
  • 281900Z 26011KT 210V290 CAVOK 25/13 Q1011 NOSIG

EXPIRED METARs :
  • 281830Z 25014KT 210V290 CAVOK 26/13 Q1011 NOSIG
  • 281800Z 25015KT 210V290 CAVOK 27/12 Q1011 NOSIG
  • 281730Z 27014KT 240V300 CAVOK 29/12 Q1011 NOSIG
  • 281700Z 26015KT 220V280 9999 FEW011 29/12 Q1011 NOSIG
  • 281630Z 26013KT 220V300 CAVOK 31/11 Q1011 NOSIG

TAF TAF LEMO
Valid from the 28 at 15:00 until the 29 at 15:00 UTC


281400Z 2815/2915 25015KT CAVOK TX35/2815Z TN14/2904Z
PROB30
TEMPO 2815/2818 25015G25KT
TEMPO 2901/2907 BKN010



MET'MAP, your aeronautical weather chart ! - Copyright ORBIFLY December 2007 - Disclaimer

ORBIFLY MET'MAP TEAM :

Programming & Development : Alexandra Zaïnal
Original concept : Baudouin d'Aumeries
Technical & hardware support : Manuel Goepfert
Assistance : Marc-Olivier Méhu

Contact : metmap@orbifly.com




SOURCES & CREDITS :

   NOAA